Thursday, June 30, 2016, 12:56 AM EDT

KOXB, Ocean City Municipal Airport

Location: Berlin, MD, United States Lat: 38.317
Local Time: 12:56 AM EDT ( 4:56 GMT) Lon: -75.117
Time Zone: US/Eastern Elev: 13 ft

Show me the last for .
Show Decoded

2016-06-29 23:53 METAR KOXB 300353Z AUTO 29004KT 10SM CLR 19/16 A2999 RMK AO2 SLP156 T01940161
                 TSNO =
2016-06-29 22:53 METAR KOXB 300253Z AUTO 29004KT 10SM CLR 20/16 A2999 RMK AO2 SLP154 T02000161
                 53020 TSNO =
2016-06-29 21:53 METAR KOXB 300153Z AUTO 00000KT 10SM CLR 19/18 A2997 RMK AO2 SLP147 T01890178
                 TSNO =
2016-06-29 20:53 METAR KOXB 300053Z AUTO 00000KT 10SM CLR 21/18 A2994 RMK AO2 SLP139 T02060178
                 TSNO =
2016-06-29 19:53 METAR KOXB 292353Z AUTO 29003KT 10SM CLR 25/16 A2993 RMK AO2 SLP134 6////
                 T02500161 10261 20233 53006 TSNO =
2016-06-29 18:53 METAR KOXB 292253Z AUTO 18004KT 10SM FEW060 24/22 A2991 RMK AO2 SLP127 T02440217
                 TSNO =
2016-06-29 17:53 METAR KOXB 292153Z AUTO 15006KT 9SM FEW070 24/22 A2990 RMK AO2 SLP126 T02440217
                 TSNO =
2016-06-29 16:53 METAR KOXB 292053Z AUTO 20006KT 9SM CLR 25/21 A2991 RMK AO2 SLP128 6////
                 T02500211 TSNO =
2016-06-29 15:53 METAR KOXB 291953Z AUTO 20006KT 6SM HZ FEW060 SCT080 24/21 A2991 RMK AO2 SLP128
                 T02440211 TSNO =
2016-06-29 14:53 METAR KOXB 291853Z AUTO 13006KT 6SM BR SCT050 BKN065 23/21 A2990 RMK AO2 SLP125
                 T02330211 TSNO =
2016-06-29 13:53 METAR KOXB 291753Z AUTO 10007KT 8SM FEW037 SCT060 BKN080 25/21 A2989 RMK AO2
                 SLP123 T02500211 10283 20228 55001 TSNO =
2016-06-29 13:07 METAR KOXB 291707Z AUTO 09006KT 8SM BKN032 25/21 A2989 RMK AO2 T02500211 TSNO =
2016-06-29 12:53 METAR KOXB 291653Z AUTO VRB03KT 10SM BKN029 BKN036 27/21 A2989 RMK AO2 SLP121
                 T02720211 TSNO =
2016-06-29 11:53 METAR KOXB 291553Z AUTO 30008KT 10SM SCT023 27/22 A2989 RMK AO2 SLP122 T02720217
                 TSNO =
2016-06-29 11:03 METAR KOXB 291503Z AUTO 32006KT 10SM SCT019 26/21 A2990 RMK AO2 T02610211 TSNO =
2016-06-29 10:53 METAR KOXB 291453Z AUTO 31006KT 10SM BKN018 26/21 A2990 RMK AO2 SLP124 T02560211
                 50000 TSNO =
2016-06-29 10:31 METAR KOXB 291431Z AUTO 32005KT 10SM BKN018 26/21 A2990 RMK AO2 T02560211 TSNO =
2016-06-29 09:53 METAR KOXB 291353Z AUTO 33006KT 10SM FEW016 26/21 A2990 RMK AO2 SLP124 T02560211
                 TSNO =
2016-06-29 08:53 METAR KOXB 291253Z AUTO 33007KT 10SM CLR 24/21 A2990 RMK AO2 SLP124 T02440211
                 TSNO =
2016-06-29 07:53 METAR KOXB 291153Z AUTO 00000KT 10SM FEW110 23/21 A2990 RMK AO2 SLP124 70080
                 T02280211 10228 20211 51007 TSNO =
2016-06-29 07:09 METAR KOXB 291109Z AUTO 00000KT 3SM BR FEW006 OVC110 22/21 A2989 RMK AO2
                 T02220211 TSNO =
2016-06-29 06:53 METAR KOXB 291053Z AUTO 00000KT 2SM BR SCT006 OVC110 22/21 A2989 RMK AO2 SLP122
                 T02170211 TSNO =
2016-06-29 06:49 METAR KOXB 291049Z AUTO 00000KT 2SM BR SCT006 OVC110 22/21 A2989 RMK AO2 TSNO =
2016-06-29 06:35 METAR KOXB 291035Z AUTO 00000KT 1 1/2SM BR FEW006 OVC100 22/21 A2989 RMK AO2
                 T02170211 TSNO =
2016-06-29 06:29 METAR KOXB 291029Z AUTO 13003KT 2 1/2SM BR OVC100 22/21 A2989 RMK AO2 T02170211
                 TSNO =
2016-06-29 06:20 METAR KOXB 291020Z AUTO 00000KT 3SM BR BKN100 21/21 A2988 RMK AO2 T02110206 TSNO
                 =
2016-06-29 06:02 METAR KOXB 291002Z AUTO 00000KT 2SM BR FEW025 FEW100 21/20 A2988 RMK AO2
                 T02110200 TSNO =
2016-06-29 05:53 METAR KOXB 290953Z AUTO 00000KT 4SM BR FEW017 SCT024 BKN100 21/21 A2988 RMK AO2
                 SLP116 T02110206 TSNO =
2016-06-29 05:24 METAR KOXB 290924Z AUTO 00000KT 4SM BR SCT018 BKN025 21/21 A2987 RMK AO2
                 T02110206 TSNO =
2016-06-29 05:10 METAR KOXB 290910Z AUTO 34003KT 6SM BR SCT025 21/21 A2988 RMK AO2 T02110206 TSNO
                 =
2016-06-29 04:53 METAR KOXB 290853Z AUTO 00000KT 9SM SCT019 BKN024 22/21 A2987 RMK AO2 SLP116
                 T02170211 55003 TSNO =
2016-06-29 03:53 METAR KOXB 290753Z AUTO 33003KT 7SM BKN016 BKN090 22/21 A2987 RMK AO2 SLP114
                 T02170211 TSNO =
2016-06-29 02:53 METAR KOXB 290653Z AUTO 21006KT 7SM CLR 22/22 A2987 RMK AO2 SLP113 T02220217
                 TSNO =
2016-06-29 01:53 METAR KOXB 290553Z AUTO 23008KT 9SM FEW007 22/22 A2988 RMK AO2 SLP119 T02220217
                 10228 20222 55001 TSNO =
2016-06-29 01:22 METAR KOXB 290522Z AUTO 24007KT 10SM FEW008 23/22 A2988 RMK AO2 T02280217 TSNO =

Support USWX by starting your Amazon purchase here.